createdAt,value
2018-02-27T00:00:56.482Z,13.80
2018-02-27T00:03:24.369Z,15.70
2018-02-27T00:05:52.404Z,14.17
2018-02-27T00:08:20.536Z,14.03
2018-02-27T00:10:48.563Z,13.57
2018-02-27T00:13:16.394Z,15.10
2018-02-27T00:15:44.950Z,13.93
2018-02-27T00:18:13.003Z,14.20
2018-02-27T00:20:40.788Z,13.30
2018-02-27T00:23:08.632Z,14.83
2018-02-27T00:25:36.514Z,13.93
2018-02-27T00:28:04.490Z,14.10
2018-02-27T00:30:32.340Z,13.87
2018-02-27T00:33:00.331Z,14.17
2018-02-27T00:35:28.662Z,14.50
2018-02-27T00:37:56.469Z,13.77
2018-02-27T00:40:24.331Z,14.53
2018-02-27T00:42:52.103Z,13.87
2018-02-27T00:45:19.856Z,15.87
2018-02-27T00:47:47.911Z,13.60
2018-02-27T00:50:15.655Z,15.03
2018-02-27T00:52:43.453Z,14.90
2018-02-27T00:55:11.324Z,15.90
2018-02-27T00:57:39.191Z,15.60
2018-02-27T01:00:07.159Z,15.40
2018-02-27T01:02:35.152Z,16.00
2018-02-27T01:05:04.004Z,15.30
2018-02-27T01:07:32.065Z,15.20
2018-02-27T01:09:59.962Z,15.30
2018-02-27T01:12:28.010Z,14.50
2018-02-27T01:14:56.773Z,14.20
2018-02-27T01:17:24.518Z,15.50
2018-02-27T01:19:53.650Z,16.13
2018-02-27T01:22:21.638Z,15.63
2018-02-27T01:24:49.512Z,15.00
2018-02-27T01:27:17.375Z,13.70
2018-02-27T01:29:45.443Z,15.57
2018-02-27T01:32:13.398Z,14.97
2018-02-27T01:34:41.172Z,14.60
2018-02-27T01:37:09.053Z,15.47
2018-02-27T01:39:36.795Z,15.40
2018-02-27T01:42:04.626Z,14.33
2018-02-27T01:44:32.435Z,17.63
2018-02-27T01:47:00.508Z,14.47
2018-02-27T01:49:28.552Z,13.70
2018-02-27T01:51:56.441Z,15.33
2018-02-27T01:54:24.311Z,15.47
2018-02-27T01:56:52.112Z,13.97
2018-02-27T01:59:21.137Z,15.70
2018-02-27T02:01:48.927Z,16.10
2018-02-27T02:04:16.778Z,15.70
2018-02-27T02:06:44.857Z,15.40
2018-02-27T02:09:12.670Z,14.23
2018-02-27T02:11:41.300Z,16.00
2018-02-27T02:14:09.058Z,14.57
2018-02-27T02:16:36.951Z,14.00
2018-02-27T02:19:04.914Z,15.50
2018-02-27T02:21:32.716Z,14.10
2018-02-27T02:24:01.260Z,14.67
2018-02-27T02:26:29.233Z,13.43
2018-02-27T02:28:57.100Z,13.33
2018-02-27T02:31:24.951Z,13.70
2018-02-27T02:33:52.840Z,15.80
2018-02-27T02:36:22.028Z,13.17
2018-02-27T02:38:49.791Z,15.27
2018-02-27T02:41:17.642Z,14.37
2018-02-27T02:43:45.504Z,13.20
2018-02-27T02:46:13.241Z,12.77
2018-02-27T02:48:41.199Z,15.20
2018-02-27T02:51:09.022Z,16.90
2018-02-27T02:53:37.173Z,15.60
2018-02-27T02:56:04.910Z,15.87
2018-02-27T02:58:32.723Z,15.97
2018-02-27T03:01:00.593Z,14.80
2018-02-27T03:03:28.488Z,15.13
2018-02-27T03:05:57.152Z,16.20
2018-02-27T03:08:25.092Z,14.07
2018-02-27T03:10:52.863Z,15.73
2018-02-27T03:13:20.720Z,15.20
2018-02-27T03:15:48.643Z,14.20
2018-02-27T03:18:17.138Z,15.80
2018-02-27T03:20:45.057Z,15.73
2018-02-27T03:23:12.982Z,14.87
2018-02-27T03:25:41.031Z,15.23
2018-02-27T03:28:09.063Z,16.50
2018-02-27T03:30:37.033Z,16.40
2018-02-27T03:33:04.894Z,17.40
2018-02-27T03:35:32.656Z,16.63
2018-02-27T03:38:00.554Z,16.70
2018-02-27T03:40:29.286Z,15.60
2018-02-27T03:42:57.107Z,14.90
2018-02-27T03:45:25.639Z,14.40
2018-02-27T03:47:53.833Z,14.97
2018-02-27T03:50:21.889Z,14.07
2018-02-27T03:52:49.630Z,16.73
2018-02-27T03:55:17.536Z,14.23
2018-02-27T03:57:45.412Z,15.03
2018-02-27T04:00:13.265Z,15.60
2018-02-27T04:02:41.222Z,14.77
2018-02-27T04:05:09.202Z,14.33
2018-02-27T04:07:37.214Z,16.63
2018-02-27T04:10:05.867Z,17.23
2018-02-27T04:12:33.828Z,17.93
2018-02-27T04:15:01.815Z,16.63
2018-02-27T04:17:30.541Z,18.60
2018-02-27T04:19:58.354Z,16.20
2018-02-27T04:22:26.517Z,17.47
2018-02-27T04:24:54.363Z,15.53
2018-02-27T04:27:22.354Z,15.40
2018-02-27T04:29:50.415Z,17.43
2018-02-27T04:32:18.295Z,16.43
2018-02-27T04:34:46.057Z,16.23
2018-02-27T04:37:14.060Z,16.00
2018-02-27T04:39:42.606Z,15.87
2018-02-27T04:42:10.490Z,15.73
2018-02-27T04:44:38.551Z,17.47
2018-02-27T04:47:06.414Z,15.30
2018-02-27T04:49:34.663Z,15.77
2018-02-27T04:52:02.658Z,16.33
2018-02-27T04:54:30.632Z,16.30
2018-02-27T04:56:58.497Z,17.77
2018-02-27T04:59:26.261Z,16.50
2018-02-27T05:01:55.037Z,15.50
2018-02-27T05:04:23.068Z,16.07
2018-02-27T05:06:51.075Z,17.53
2018-02-27T05:09:19.049Z,16.07
2018-02-27T05:11:47.057Z,15.40
2018-02-27T05:14:14.881Z,17.10
2018-02-27T05:16:44.036Z,16.27
2018-02-27T05:19:11.954Z,17.60
2018-02-27T05:21:39.810Z,15.73
2018-02-27T05:24:07.939Z,16.80
2018-02-27T05:26:35.706Z,16.90
2018-02-27T05:29:04.012Z,14.77
2018-02-27T05:31:31.894Z,14.77
2018-02-27T05:33:59.955Z,15.60
2018-02-27T05:36:28.459Z,15.93
2018-02-27T05:38:56.269Z,15.53
2018-02-27T05:41:24.174Z,17.57
2018-02-27T05:43:52.123Z,15.83
2018-02-27T05:46:20.011Z,17.83
2018-02-27T05:48:47.978Z,17.00
2018-02-27T05:51:16.065Z,18.20
2018-02-27T05:53:44.023Z,17.70
2018-02-27T05:56:12.186Z,15.83
2018-02-27T05:58:39.955Z,16.87
2018-02-27T06:01:08.023Z,18.40
2018-02-27T06:03:35.967Z,17.37
2018-02-27T06:06:03.858Z,17.20
2018-02-27T06:08:31.726Z,15.30
2018-02-27T06:10:59.785Z,15.80
2018-02-27T06:13:27.791Z,16.50
2018-02-27T06:15:56.421Z,17.60
2018-02-27T06:18:24.262Z,16.90
2018-02-27T06:20:52.082Z,17.27
2018-02-27T06:23:20.372Z,17.83
2018-02-27T06:25:49.381Z,17.63
2018-02-27T06:28:18.891Z,17.33
2018-02-27T06:30:46.722Z,18.60
2018-02-27T06:33:14.863Z,18.70
2018-02-27T06:35:42.663Z,17.90
2018-02-27T06:38:10.626Z,17.10
2018-02-27T06:40:38.677Z,16.37
2018-02-27T06:43:06.648Z,18.00
2018-02-27T06:45:34.634Z,20.60
2018-02-27T06:48:02.600Z,16.30
2018-02-27T06:50:30.467Z,16.87
2018-02-27T06:52:58.575Z,17.80
2018-02-27T06:55:27.124Z,18.00
2018-02-27T06:57:55.089Z,16.97
2018-02-27T07:00:23.067Z,17.57
2018-02-27T07:02:51.057Z,15.90
2018-02-27T07:05:19.790Z,17.10
2018-02-27T07:07:47.587Z,17.93
2018-02-27T07:10:16.312Z,18.70
2018-02-27T07:12:44.130Z,17.70
2018-02-27T07:15:11.993Z,17.40
2018-02-27T07:17:39.966Z,17.87
2018-02-27T07:20:08.018Z,18.67
2018-02-27T07:22:36.012Z,19.30
2018-02-27T07:25:03.832Z,17.70
2018-02-27T07:27:31.739Z,17.87
2018-02-27T07:30:00.216Z,19.43
2018-02-27T07:32:28.167Z,19.20
2018-02-27T07:34:56.152Z,18.27
2018-02-27T07:37:24.127Z,20.53
2018-02-27T07:39:51.988Z,19.37
2018-02-27T07:42:20.050Z,20.60
2018-02-27T07:44:48.113Z,20.17
2018-02-27T07:47:15.985Z,19.73
2018-02-27T07:49:43.945Z,19.13
2018-02-27T07:52:11.919Z,18.40
2018-02-27T07:54:39.806Z,19.63
2018-02-27T07:57:07.778Z,18.53
2018-02-27T07:59:35.636Z,17.17
2018-02-27T08:02:03.517Z,18.07
2018-02-27T08:04:32.108Z,18.00
2018-02-27T08:07:00.668Z,17.30
2018-02-27T08:09:29.076Z,16.90
2018-02-27T08:11:57.863Z,16.03
2018-02-27T08:14:26.524Z,15.10
2018-02-27T08:16:54.290Z,15.40
2018-02-27T08:19:22.151Z,15.30
2018-02-27T08:21:50.006Z,16.07
2018-02-27T08:24:17.852Z,17.27
2018-02-27T08:26:46.488Z,17.10
2018-02-27T08:29:15.135Z,16.23
2018-02-27T08:31:43.020Z,15.43
2018-02-27T08:34:10.962Z,16.43
2018-02-27T08:36:38.964Z,16.60
2018-02-27T08:39:06.847Z,16.47
2018-02-27T08:41:36.336Z,18.30
2018-02-27T08:44:04.614Z,16.90
2018-02-27T08:46:32.474Z,16.17
2018-02-27T08:49:00.519Z,17.07
2018-02-27T08:51:28.691Z,16.20
2018-02-27T08:53:56.558Z,17.10
2018-02-27T08:56:24.426Z,15.40
2018-02-27T08:58:52.311Z,17.10
2018-02-27T09:01:20.256Z,16.33
2018-02-27T09:03:48.162Z,16.70
2018-02-27T09:06:16.118Z,17.00
2018-02-27T09:08:44.215Z,16.37
2018-02-27T09:11:12.781Z,15.60
2018-02-27T09:13:40.716Z,15.00
2018-02-27T09:16:08.484Z,16.90
2018-02-27T09:18:36.563Z,16.00
2018-02-27T09:21:04.940Z,19.03
2018-02-27T09:23:32.868Z,15.70
2018-02-27T09:26:00.776Z,15.50
2018-02-27T09:28:28.629Z,14.77
2018-02-27T09:30:57.315Z,15.93
2018-02-27T09:33:25.087Z,14.10
2018-02-27T09:35:52.883Z,15.13
2018-02-27T09:38:21.441Z,16.80
2018-02-27T09:40:49.335Z,15.07
2018-02-27T09:43:17.068Z,16.50
2018-02-27T09:45:44.949Z,16.33
2018-02-27T09:48:12.662Z,16.40
2018-02-27T09:50:40.560Z,16.93
2018-02-27T09:53:08.332Z,17.10
2018-02-27T09:55:36.947Z,18.83
2018-02-27T09:58:05.804Z,17.93
2018-02-27T10:00:33.507Z,16.93
2018-02-27T10:03:02.018Z,18.90
2018-02-27T10:05:30.210Z,17.30
2018-02-27T10:07:58.266Z,17.30
2018-02-27T10:10:25.987Z,17.60
2018-02-27T10:12:53.731Z,19.30
2018-02-27T10:15:21.698Z,18.77
2018-02-27T10:17:49.521Z,17.90
2018-02-27T10:20:17.517Z,18.43
2018-02-27T10:22:45.226Z,19.23
2018-02-27T10:25:13.919Z,18.40
2018-02-27T10:27:42.554Z,17.87
2018-02-27T10:30:10.301Z,18.37
2018-02-27T10:32:38.074Z,20.00
2018-02-27T10:35:06.190Z,18.90
2018-02-27T10:37:34.729Z,19.37
2018-02-27T10:40:02.467Z,18.20
2018-02-27T10:42:30.241Z,18.23
2018-02-27T10:44:58.132Z,18.60
2018-02-27T10:47:25.882Z,17.77
2018-02-27T10:49:53.836Z,17.93
2018-02-27T10:52:21.734Z,18.43
2018-02-27T10:54:49.956Z,19.30
2018-02-27T10:57:17.960Z,20.90
2018-02-27T10:59:46.136Z,19.50
2018-02-27T11:02:14.010Z,20.13
2018-02-27T11:04:42.081Z,19.83
2018-02-27T11:07:09.836Z,18.60
2018-02-27T11:09:37.838Z,18.77
2018-02-27T11:12:05.985Z,18.50
2018-02-27T11:14:34.570Z,19.13
2018-02-27T11:17:02.261Z,18.00
2018-02-27T11:19:31.004Z,20.00
2018-02-27T11:21:58.792Z,20.20
2018-02-27T11:24:26.643Z,17.07
2018-02-27T11:26:54.508Z,18.80
2018-02-27T11:29:22.262Z,18.83
2018-02-27T11:31:50.042Z,18.03
2018-02-27T11:34:18.020Z,19.87
2018-02-27T11:36:45.973Z,18.60
2018-02-27T11:39:13.962Z,18.33
2018-02-27T11:41:41.703Z,18.63
2018-02-27T11:44:09.992Z,18.80
2018-02-27T11:46:37.731Z,20.30
2018-02-27T11:49:05.516Z,18.03
2018-02-27T11:51:33.226Z,18.70
2018-02-27T11:54:01.959Z,18.13
2018-02-27T11:56:29.878Z,19.60
2018-02-27T11:58:58.832Z,20.63
2018-02-27T12:01:26.539Z,21.07
2018-02-27T12:03:55.099Z,18.80
2018-02-27T12:06:22.921Z,20.00
2018-02-27T12:08:51.010Z,19.47
2018-02-27T12:11:18.866Z,19.30
2018-02-27T12:13:46.631Z,28.67
2018-02-27T12:16:14.351Z,18.93
2018-02-27T12:18:42.983Z,21.40
2018-02-27T12:21:10.722Z,22.17
2018-02-27T12:23:38.616Z,21.03
2018-02-27T12:26:07.504Z,18.30
2018-02-27T12:28:35.370Z,18.47
2018-02-27T12:31:03.069Z,19.93
2018-02-27T12:33:32.320Z,20.50
2018-02-27T12:36:00.066Z,17.70
2018-02-27T12:38:28.067Z,21.20
2018-02-27T12:40:56.099Z,18.90
2018-02-27T12:43:24.113Z,17.97
2018-02-27T12:45:51.986Z,19.40
2018-02-27T12:48:19.852Z,19.67
2018-02-27T12:50:47.757Z,20.17
2018-02-27T12:53:16.479Z,17.73
2018-02-27T12:55:44.204Z,18.50
2018-02-27T12:58:12.729Z,20.20
2018-02-27T13:00:41.485Z,20.67
2018-02-27T13:03:09.218Z,19.30
2018-02-27T13:05:36.923Z,19.53
2018-02-27T13:08:04.719Z,19.67
2018-02-27T13:10:32.427Z,19.23
2018-02-27T13:13:01.162Z,18.97
2018-02-27T13:15:29.323Z,18.50
2018-02-27T13:17:57.405Z,18.83
2018-02-27T13:20:25.582Z,19.30
2018-02-27T13:22:53.753Z,17.90
2018-02-27T13:25:21.641Z,19.43
2018-02-27T13:27:49.831Z,19.50
2018-02-27T13:30:18.879Z,17.83
2018-02-27T13:32:46.743Z,19.20
2018-02-27T13:35:15.746Z,19.17
2018-02-27T13:37:44.440Z,18.00
2018-02-27T13:40:12.399Z,18.37
2018-02-27T13:42:40.491Z,18.50
2018-02-27T13:45:09.168Z,18.20
2018-02-27T13:47:37.083Z,18.70
2018-02-27T13:50:04.998Z,16.43
2018-02-27T13:52:33.170Z,17.90
2018-02-27T13:55:00.924Z,16.53
2018-02-27T13:57:28.870Z,17.90
2018-02-27T13:59:56.568Z,16.63
2018-02-27T14:02:24.634Z,17.50
2018-02-27T14:04:52.588Z,18.67
2018-02-27T14:07:20.318Z,18.40
2018-02-27T14:09:48.071Z,19.50
2018-02-27T14:12:16.692Z,18.17
2018-02-27T14:14:44.634Z,18.30
2018-02-27T14:17:12.337Z,17.37
2018-02-27T14:19:40.049Z,17.07
2018-02-27T14:22:08.577Z,16.60
2018-02-27T14:24:36.528Z,17.00
2018-02-27T14:27:04.492Z,16.77
2018-02-27T14:29:32.254Z,17.80
2018-02-27T14:32:00.154Z,18.97
2018-02-27T14:34:28.095Z,17.37
2018-02-27T14:36:55.827Z,16.80
2018-02-27T14:39:24.342Z,18.20
2018-02-27T14:41:52.084Z,19.33
2018-02-27T14:44:21.664Z,17.53
2018-02-27T14:46:49.392Z,18.23
2018-02-27T14:49:17.252Z,19.73
2018-02-27T14:51:45.226Z,18.47
2018-02-27T14:54:12.930Z,18.70
2018-02-27T14:56:41.558Z,18.60
2018-02-27T14:59:09.304Z,18.67
2018-02-27T15:01:37.256Z,20.20
2018-02-27T15:04:05.995Z,18.77
2018-02-27T15:06:33.989Z,19.27
2018-02-27T15:09:01.842Z,18.03
2018-02-27T15:11:29.703Z,18.00
2018-02-27T15:13:57.981Z,16.90
2018-02-27T15:16:26.961Z,17.90
2018-02-27T15:18:55.643Z,18.50
2018-02-27T15:21:24.439Z,15.53
2018-02-27T15:23:52.430Z,18.23
2018-02-27T15:26:20.607Z,16.30
2018-02-27T15:28:50.522Z,17.53
2018-02-27T15:31:18.480Z,17.73
2018-02-27T15:33:46.783Z,16.50
2018-02-27T15:36:15.813Z,18.73
2018-02-27T15:38:43.560Z,16.00
2018-02-27T15:41:11.353Z,17.37
2018-02-27T15:43:39.115Z,16.80
2018-02-27T15:46:07.052Z,17.00
2018-02-27T15:48:34.889Z,15.57
2018-02-27T15:51:03.437Z,18.50
2018-02-27T15:53:31.262Z,17.00
2018-02-27T15:55:59.178Z,18.67
2018-02-27T15:58:26.912Z,16.73
2018-02-27T16:00:54.636Z,18.03
2018-02-27T16:03:23.185Z,17.83
2018-02-27T16:05:50.915Z,19.23
2018-02-27T16:08:18.713Z,19.13
2018-02-27T16:10:46.447Z,17.37
2018-02-27T16:13:14.326Z,17.80
2018-02-27T16:15:42.568Z,15.90
2018-02-27T16:18:11.312Z,39.77
2018-02-27T16:20:39.169Z,21.50
2018-02-27T16:23:10.978Z,16.00
2018-02-27T16:25:39.910Z,16.30
2018-02-27T16:28:07.710Z,16.63
2018-02-27T16:30:35.602Z,18.77
2018-02-27T16:33:04.129Z,16.67
2018-02-27T16:35:32.056Z,17.27
2018-02-27T16:38:00.033Z,17.13
2018-02-27T16:40:28.107Z,15.53
2018-02-27T16:42:55.830Z,18.00
2018-02-27T16:45:24.475Z,17.37
2018-02-27T16:47:52.256Z,18.00
2018-02-27T16:50:20.316Z,18.17
2018-02-27T16:52:48.044Z,15.23
2018-02-27T16:55:15.859Z,17.73
2018-02-27T16:57:44.227Z,18.13
2018-02-27T17:00:12.428Z,18.73
2018-02-27T17:02:41.180Z,19.20
2018-02-27T17:05:09.147Z,17.20
2018-02-27T17:07:37.144Z,19.93
2018-02-27T17:10:05.576Z,18.50
2018-02-27T17:12:33.606Z,18.50
2018-02-27T17:15:02.166Z,17.77
2018-02-27T17:17:30.327Z,20.17
2018-02-27T17:19:58.518Z,19.03
2018-02-27T17:22:26.670Z,19.37
2018-02-27T17:24:54.535Z,18.40
2018-02-27T17:27:22.467Z,19.20
2018-02-27T17:29:50.367Z,18.63
2018-02-27T17:32:18.386Z,18.73
2018-02-27T17:34:47.795Z,19.80
2018-02-27T17:37:16.591Z,19.37
2018-02-27T17:39:44.708Z,18.80
2018-02-27T17:42:13.031Z,19.17
2018-02-27T17:44:42.481Z,18.97
2018-02-27T17:47:12.214Z,17.97
2018-02-27T17:49:40.791Z,18.80
2018-02-27T17:52:09.695Z,18.83
2018-02-27T17:54:37.647Z,18.90
2018-02-27T17:57:05.676Z,17.40
2018-02-27T17:59:33.612Z,19.83
2018-02-27T18:02:02.688Z,17.60
2018-02-27T18:04:30.567Z,18.40
2018-02-27T18:06:58.396Z,19.70
2018-02-27T18:09:26.198Z,20.73
2018-02-27T18:11:54.848Z,19.83
2018-02-27T18:14:23.019Z,18.13
2018-02-27T18:16:51.501Z,21.47
2018-02-27T18:19:19.877Z,16.37
2018-02-27T18:21:48.464Z,18.77
2018-02-27T18:24:16.639Z,18.63
2018-02-27T18:26:44.602Z,17.50
2018-02-27T18:29:12.565Z,21.27
2018-02-27T18:31:40.650Z,19.47
2018-02-27T18:34:08.510Z,18.70
2018-02-27T18:36:37.181Z,18.27
2018-02-27T18:39:05.046Z,19.13
2018-02-27T18:41:33.884Z,19.00
2018-02-27T18:44:03.063Z,18.70
2018-02-27T18:46:31.013Z,17.50
2018-02-27T18:48:59.209Z,19.87
2018-02-27T18:51:27.302Z,18.10
2018-02-27T18:53:55.227Z,20.00
2018-02-27T18:56:23.299Z,18.23
2018-02-27T18:58:51.266Z,18.17
2018-02-27T19:01:19.890Z,18.57
2018-02-27T19:03:52.125Z,20.17
2018-02-27T19:06:20.206Z,19.13
2018-02-27T19:08:48.570Z,19.27
2018-02-27T19:11:16.534Z,18.83
2018-02-27T19:13:44.362Z,18.10
2018-02-27T19:16:12.269Z,18.50
2018-02-27T19:18:40.543Z,18.13
2018-02-27T19:21:08.553Z,18.50
2018-02-27T19:23:37.397Z,17.30
2018-02-27T19:26:05.267Z,19.53
2018-02-27T19:28:33.482Z,18.93
2018-02-27T19:31:02.322Z,18.80
2018-02-27T19:33:30.549Z,18.17
2018-02-27T19:35:59.811Z,18.77
2018-02-27T19:38:29.225Z,18.17
2018-02-27T19:40:57.403Z,18.47
2018-02-27T19:43:26.075Z,17.33
2018-02-27T19:45:53.979Z,18.20
2018-02-27T19:48:22.106Z,18.93
2018-02-27T19:50:50.022Z,19.23
2018-02-27T19:53:19.626Z,19.90
2018-02-27T19:55:51.019Z,20.10
2018-02-27T19:58:19.360Z,19.20
2018-02-27T20:00:48.266Z,24.70
2018-02-27T20:03:17.915Z,21.80
2018-02-27T20:05:46.877Z,22.00
2018-02-27T20:08:15.689Z,21.37
2018-02-27T20:10:44.271Z,19.77
2018-02-27T20:13:13.366Z,18.70
2018-02-27T20:15:41.582Z,18.90
2018-02-27T20:18:12.227Z,19.23
2018-02-27T20:20:41.158Z,20.47
2018-02-27T20:23:15.360Z,21.93
2018-02-27T20:25:43.506Z,21.10
2018-02-27T20:28:17.966Z,27.47
2018-02-27T20:30:46.395Z,22.07
2018-02-27T20:33:14.933Z,26.73
2018-02-27T20:35:43.262Z,32.17
2018-02-27T20:38:12.627Z,25.83
2018-02-27T20:40:41.232Z,23.03
2018-02-27T20:43:10.316Z,19.47
2018-02-27T20:45:38.731Z,19.20
2018-02-27T20:48:07.120Z,19.60
2018-02-27T20:50:35.574Z,19.63
2018-02-27T20:53:05.038Z,19.30
2018-02-27T20:55:33.443Z,19.20
2018-02-27T20:58:02.616Z,17.33
2018-02-27T21:00:30.674Z,19.97
2018-02-27T21:02:58.846Z,20.23
2018-02-27T21:05:26.736Z,15.50
2018-02-27T21:07:54.598Z,17.23
2018-02-27T21:10:22.682Z,17.90
2018-02-27T21:12:51.211Z,18.80
2018-02-27T21:15:19.234Z,19.50
2018-02-27T21:17:48.010Z,17.10
2018-02-27T21:20:16.096Z,16.70
2018-02-27T21:22:43.956Z,17.30
2018-02-27T21:25:12.360Z,17.30
2018-02-27T21:27:41.019Z,15.93
2018-02-27T21:30:09.775Z,17.17
2018-02-27T21:32:37.716Z,16.37
2018-02-27T21:35:05.937Z,18.00
2018-02-27T21:37:33.997Z,16.83
2018-02-27T21:40:02.265Z,17.40
2018-02-27T21:42:30.866Z,17.27
2018-02-27T21:44:58.839Z,17.23
2018-02-27T21:47:26.682Z,17.83
2018-02-27T21:49:54.874Z,17.00
2018-02-27T21:52:22.761Z,17.97
2018-02-27T21:54:51.336Z,17.07
2018-02-27T21:57:19.395Z,18.40
2018-02-27T21:59:47.229Z,17.07
2018-02-27T22:02:15.112Z,18.00
2018-02-27T22:04:42.900Z,16.33
2018-02-27T22:07:11.204Z,15.30
2018-02-27T22:09:39.238Z,17.13
2018-02-27T22:12:07.016Z,17.83
2018-02-27T22:14:34.971Z,18.50
2018-02-27T22:17:02.763Z,18.20
2018-02-27T22:19:31.398Z,17.70
2018-02-27T22:21:59.395Z,16.90
2018-02-27T22:24:27.251Z,18.43
2018-02-27T22:26:56.226Z,17.27
2018-02-27T22:29:24.334Z,16.00
2018-02-27T22:31:53.011Z,17.50
2018-02-27T22:34:20.951Z,17.93
2018-02-27T22:36:48.843Z,15.53
2018-02-27T22:39:17.525Z,16.47
2018-02-27T22:41:45.520Z,15.90
2018-02-27T22:44:14.159Z,16.00
2018-02-27T22:46:42.026Z,16.07
2018-02-27T22:49:10.714Z,16.40
2018-02-27T22:51:38.864Z,16.20
2018-02-27T22:54:06.635Z,15.23
2018-02-27T22:56:34.522Z,16.80
2018-02-27T22:59:02.421Z,16.37
2018-02-27T23:01:31.142Z,16.70
2018-02-27T23:03:59.144Z,17.20
2018-02-27T23:06:27.104Z,17.33
2018-02-27T23:08:54.872Z,16.03
2018-02-27T23:11:23.346Z,16.37
2018-02-27T23:13:51.213Z,16.17
2018-02-27T23:16:19.363Z,16.87
2018-02-27T23:18:47.186Z,16.00
2018-02-27T23:21:15.052Z,18.03
2018-02-27T23:23:43.583Z,15.77
2018-02-27T23:26:24.550Z,16.50
2018-02-27T23:28:53.806Z,16.73
2018-02-27T23:31:21.981Z,15.80
2018-02-27T23:33:51.963Z,17.07
2018-02-27T23:36:19.796Z,15.40
2018-02-27T23:38:47.720Z,16.10
2018-02-27T23:41:15.691Z,18.10
2018-02-27T23:43:43.465Z,17.80
2018-02-27T23:46:11.420Z,16.17
2018-02-27T23:48:39.194Z,17.57
2018-02-27T23:51:07.037Z,17.93
2018-02-27T23:53:34.991Z,17.47
2018-02-27T23:56:02.992Z,15.60
2018-02-27T23:58:30.928Z,17.30
